Time;durP1;ratioP1;P1;durP2;ratioP2;P2;SDS_P1;SDS_P2;PMS_P1;PMS_P2;Temp;Humidity;BMP_temperature;BMP_pressure;BME280_temperature;BME280_humidity;BME280_pressure;Samples;Min_cycle;Max_cycle;Signal;HPM_P1;HPM_P2
2022/08/10 05:02:52;;;;;;;;;7.75;7.00;;;;;23.43;42.55;102008.53;2549238;23;45864;-86
2022/08/10 05:04:02;;;;;;;;;6.50;5.75;;;;;23.42;42.32;102012.19;2391377;28;45526;-86
2022/08/10 05:05:13;;;;;;;;;7.00;6.00;;;;;23.41;42.10;102014.00;2385929;28;44839;-88
2022/08/10 05:06:23;;;;;;;;;9.75;9.75;;;;;23.42;42.37;102017.53;2386151;28;45371;-91
2022/08/10 05:07:34;;;;;;;;;10.75;9.75;;;;;23.39;41.97;102018.59;2384070;28;44697;-88
2022/08/10 05:08:44;;;;;;;;;6.00;6.00;;;;;23.40;42.62;102014.09;2377073;28;46868;-88
2022/08/10 05:09:55;;;;;;;;;7.00;7.00;;;;;23.41;42.77;102015.84;2386914;28;45321;-95
2022/08/10 05:11:05;;;;;;;;;7.00;5.25;;;;;23.42;42.54;102012.19;2395960;28;46891;-96
2022/08/10 05:12:15;;;;;;;;;9.25;8.50;;;;;23.44;43.16;102016.47;2387573;28;45278;-92
2022/08/10 05:13:26;;;;;;;;;8.50;8.50;;;;;23.43;42.44;102013.91;2379793;28;47063;-95
2022/08/10 05:14:36;;;;;;;;;10.75;9.00;;;;;23.44;42.52;102015.59;2387278;28;45983;-95
2022/08/10 05:15:49;;;;;;;;;6.75;5.25;;;;;23.42;42.06;102009.50;2385000;28;46897;-89
2022/08/10 05:16:59;;;;;;;;;7.00;7.00;;;;;23.41;42.47;102010.47;2387134;28;45464;-90
2022/08/10 05:18:10;;;;;;;;;9.25;8.00;;;;;23.38;42.56;102012.38;2383117;28;47008;-92
2022/08/10 05:19:20;;;;;;;;;10.50;8.00;;;;;23.37;42.64;102018.72;2386141;28;45259;-88
2022/08/10 05:20:31;;;;;;;;;7.75;6.75;;;;;23.35;42.27;102015.28;2392761;28;47092;-88
2022/08/10 05:21:43;;;;;;;;;10.25;7.50;;;;;23.34;42.39;102015.38;2383890;28;45188;-87
2022/08/10 05:22:53;;;;;;;;;8.75;7.25;;;;;23.32;42.28;102012.81;2373610;28;47142;-83
2022/08/10 05:24:04;;;;;;;;;9.50;8.25;;;;;23.35;42.29;102017.09;2382438;28;45222;-85
2022/08/10 05:25:18;;;;;;;;;7.00;6.50;;;;;23.34;42.72;102020.75;2393219;28;46698;-85
2022/08/10 05:26:28;;;;;;;;;10.25;7.50;;;;;23.35;42.23;102020.66;2390215;28;45462;-85
2022/08/10 05:27:39;;;;;;;;;8.50;8.25;;;;;23.33;42.61;102017.22;2375664;28;47281;-85
2022/08/10 05:28:49;;;;;;;;;10.00;8.50;;;;;23.35;42.64;102015.28;2384358;28;45361;-89
2022/08/10 05:30:01;;;;;;;;;8.25;8.25;;;;;23.36;42.28;102017.00;2383175;28;47542;-89
2022/08/10 05:31:11;;;;;;;;;8.00;8.00;;;;;23.34;42.37;102020.75;2376978;28;45220;-86
2022/08/10 05:32:21;;;;;;;;;8.75;8.75;;;;;23.36;42.44;102025.03;2376800;28;47022;-86
2022/08/10 05:33:32;;;;;;;;;10.00;9.00;;;;;23.36;42.37;102029.56;2377341;28;45284;-85
2022/08/10 05:34:43;;;;;;;;;8.00;8.00;;;;;23.36;42.73;102030.41;2385971;28;48153;-86
2022/08/10 05:35:53;;;;;;;;;5.75;5.50;;;;;23.37;42.38;102031.28;2383249;28;45233;-90
2022/08/10 05:37:05;;;;;;;;;8.50;8.50;;;;;23.36;42.26;102025.03;2375354;28;47979;-87
2022/08/10 05:38:17;;;;;;;;;9.00;7.75;;;;;23.35;43.05;102023.34;2387056;28;45281;-87
2022/08/10 05:39:28;;;;;;;;;8.50;7.75;;;;;23.36;42.66;102024.22;2383185;28;47128;-87
2022/08/10 05:40:41;;;;;;;;;11.25;8.50;;;;;23.36;42.30;102022.34;2384277;28;44792;-89
2022/08/10 05:41:53;;;;;;;;;10.75;8.00;;;;;23.34;42.24;102026.97;2393388;28;47310;-93
2022/08/10 05:43:04;;;;;;;;;13.50;10.00;;;;;23.33;42.82;102024.41;2398190;28;45259;-94
2022/08/10 05:44:15;;;;;;;;;7.75;7.75;;;;;23.32;42.31;102026.22;2395803;28;47349;-94
2022/08/10 05:45:26;;;;;;;;;6.25;6.25;;;;;23.33;42.94;102032.44;2383364;28;45242;-93
2022/08/10 05:46:37;;;;;;;;;9.25;8.50;;;;;23.33;42.94;102025.28;2386760;28;46742;-93
2022/08/10 05:47:47;;;;;;;;;8.00;7.00;;;;;23.34;42.95;102024.28;2391414;28;44696;-94
2022/08/10 05:48:58;;;;;;;;;8.75;7.75;;;;;23.32;42.29;102028.91;2377861;28;47958;-93
2022/08/10 05:50:10;;;;;;;;;8.75;7.75;;;;;23.31;42.92;102029.84;2386670;28;45441;-93
2022/08/10 05:51:21;;;;;;;;;7.00;5.75;;;;;23.30;42.53;102014.75;2393794;28;47420;-94
2022/08/10 05:52:31;;;;;;;;;9.00;7.75;;;;;23.32;42.45;102026.22;2391060;28;45210;-94
2022/08/10 05:53:42;;;;;;;;;9.75;8.00;;;;;23.29;42.75;102021.06;2377848;28;46860;-93
2022/08/10 05:54:52;;;;;;;;;9.50;8.25;;;;;23.29;42.69;102029.09;2387131;28;45256;-93
2022/08/10 05:56:05;;;;;;;;;8.75;7.25;;;;;23.27;42.82;102036.41;2384870;28;48069;-92
2022/08/10 05:57:19;;;;;;;;;11.25;9.25;;;;;23.27;42.56;102031.91;2389480;28;45255;-93
2022/08/10 05:58:29;;;;;;;;;6.75;6.50;;;;;23.29;43.00;102028.25;2384580;28;47496;-93
2022/08/10 05:59:53;;;;;;;;;6.00;6.00;;;;;23.27;42.73;102036.41;2384597;28;45287;-92
2022/08/10 06:01:11;;;;;;;;;8.75;7.50;;;;;23.26;42.94;102034.69;2383920;28;47345;-96
2022/08/10 06:02:30;;;;;;;;;12.25;8.75;;;;;23.26;42.43;102035.53;2383883;28;45333;-94
2022/08/10 06:03:52;;;;;;;;;7.50;7.00;;;;;23.25;42.59;102022.22;2385173;28;46921;-94
2022/08/10 06:05:08;;;;;;;;;9.25;8.50;;;;;23.28;43.12;102027.41;2373269;28;45242;-94
2022/08/10 06:06:20;;;;;;;;;7.00;7.00;;;;;23.29;42.74;102028.25;2375446;28;47495;-91
2022/08/10 06:07:32;;;;;;;;;8.00;8.00;;;;;23.28;42.99;102027.41;2369078;28;45292;-91
2022/08/10 06:08:45;;;;;;;;;6.50;6.00;;;;;23.28;43.04;102030.09;2379101;28;48266;-94
2022/08/10 06:09:59;;;;;;;;;7.00;7.00;;;;;23.27;42.78;102031.03;2383652;28;44805;-88
2022/08/10 06:11:12;;;;;;;;;12.50;9.50;;;;;23.29;42.50;102029.09;2375452;28;46770;-91
2022/08/10 06:12:26;;;;;;;;;9.50;8.00;;;;;23.27;43.19;102031.03;2373610;28;45478;-89
2022/08/10 06:15:08;;;;;;;;;9.25;9.25;;;;;23.24;43.33;102040.13;2384596;28;44704;-89
2022/08/10 06:16:20;;;;;;;;;8.00;6.50;;;;;23.23;43.24;102035.75;2374102;28;48043;-86
2022/08/10 06:17:31;;;;;;;;;7.25;7.25;;;;;23.26;43.37;102040.91;2367865;28;45762;-85
2022/08/10 06:18:42;;;;;;;;;10.00;9.50;;;;;23.26;43.50;102035.53;2377249;28;45202;-83
2022/08/10 06:19:54;;;;;;;;;7.50;7.25;;;;;23.29;43.27;102041.66;2384304;28;45168;-83
2022/08/10 06:21:05;;;;;;;;;7.75;7.00;;;;;23.30;43.18;102030.84;2384575;28;45412;-83
2022/08/10 06:22:16;;;;;;;;;8.50;8.50;;;;;23.30;43.57;102041.56;2384017;28;45228;-83
2022/08/10 06:23:31;;;;;;;;;5.50;5.00;;;;;23.30;42.92;102035.34;2382591;28;45345;-83
2022/08/10 06:24:42;;;;;;;;;8.00;8.00;;;;;23.31;43.02;102039.75;2384271;28;44783;-83
2022/08/10 06:25:54;;;;;;;;;10.25;8.00;;;;;23.33;43.27;102030.63;2383923;28;45376;-84
2022/08/10 06:27:04;;;;;;;;;8.25;8.25;;;;;23.33;43.44;102041.38;2384718;28;45241;-83
2022/08/10 06:28:18;;;;;;;;;8.00;8.00;;;;;23.33;42.75;102038.69;2383684;28;46833;-83
2022/08/10 06:29:32;;;;;;;;;9.25;9.25;;;;;23.34;42.78;102036.84;2383958;28;45502;-83
2022/08/10 06:30:44;;;;;;;;;8.50;8.50;;;;;23.35;43.02;102039.44;2384012;28;45443;-83
2022/08/10 06:31:56;;;;;;;;;7.75;7.75;;;;;23.36;42.97;102042.97;2384818;28;45191;-87
2022/08/10 06:33:08;;;;;;;;;8.75;7.75;;;;;23.40;43.20;102036.44;2384084;28;45393;-86
2022/08/10 06:34:28;;;;;;;;;9.50;8.25;;;;;23.43;43.19;102038.06;2383679;28;44680;-85
2022/08/10 06:35:40;;;;;;;;;8.00;7.75;;;;;23.47;42.92;102036.88;2383736;28;46260;-86
2022/08/10 06:36:52;;;;;;;;;8.25;7.00;;;;;23.46;42.82;102040.50;2370040;28;45452;-85
2022/08/10 06:38:05;;;;;;;;;10.00;10.00;;;;;23.47;42.88;102036.88;2375309;28;45506;-86
2022/08/10 06:39:15;;;;;;;;;8.25;8.25;;;;;23.49;42.79;102040.34;2384594;28;45354;-86
2022/08/10 06:40:31;;;;;;;;;8.25;6.50;;;;;23.49;42.88;102046.56;2384426;28;45498;-85
2022/08/10 06:41:47;;;;;;;;;10.00;9.75;;;;;23.50;42.59;102044.75;2384366;28;45148;-85
2022/08/10 06:43:00;;;;;;;;;10.00;10.00;;;;;23.52;42.48;102040.13;2374110;28;48372;-86
2022/08/10 06:44:18;;;;;;;;;9.25;9.25;;;;;23.54;42.54;102046.25;2376279;28;44719;-86
2022/08/10 06:45:34;;;;;;;;;8.25;7.25;;;;;23.54;42.49;102042.72;2384756;28;45421;-85
2022/08/10 06:46:48;;;;;;;;;11.50;9.00;;;;;23.56;43.12;102041.63;2384306;28;44743;-86
2022/08/10 06:48:12;;;;;;;;;9.75;9.75;;;;;23.57;42.52;102043.38;2377306;28;46478;-85
2022/08/10 06:49:23;;;;;;;;;8.00;8.00;;;;;23.59;42.73;102040.56;2383262;28;45197;-86
2022/08/10 06:50:49;;;;;;;;;12.50;8.75;;;;;23.60;42.34;102043.16;2383371;28;45349;-86
2022/08/10 06:52:01;;;;;;;;;10.00;8.00;;;;;23.60;42.56;102043.16;2384160;28;45451;-86
2022/08/10 06:53:21;;;;;;;;;11.75;8.75;;;;;23.64;42.78;102048.31;2381974;28;47978;-85
2022/08/10 06:54:33;;;;;;;;;10.50;9.25;;;;;23.65;42.35;102045.53;2383834;28;45234;-85
2022/08/10 06:55:59;;;;;;;;;9.50;9.25;;;;;23.65;42.24;102044.66;2383479;28;45373;-86
2022/08/10 06:57:12;;;;;;;;;11.00;8.00;;;;;23.64;42.62;102037.56;2379382;28;45254;-86
2022/08/10 06:58:31;;;;;;;;;9.00;9.00;;;;;23.66;42.78;102046.38;2384112;28;46287;-85
2022/08/10 06:59:45;;;;;;;;;11.00;6.75;;;;;23.67;42.69;102053.47;2383153;28;45502;-85
2022/08/10 07:00:55;;;;;;;;;9.00;8.25;;;;;23.68;42.91;102050.66;2378934;28;46683;-86
2022/08/10 07:02:13;;;;;;;;;13.00;10.00;;;;;23.73;42.19;102049.50;2376917;28;45346;-85
2022/08/10 07:03:30;;;;;;;;;8.00;8.00;;;;;23.72;42.67;102045.97;2382546;28;48401;-89
2022/08/10 07:04:51;;;;;;;;;11.00;9.25;;;;;23.73;42.42;102041.47;2378912;28;46874;-88
2022/08/10 07:06:04;;;;;;;;;11.50;10.00;;;;;23.74;42.11;102048.53;2374368;28;47479;-89
2022/08/10 07:07:17;;;;;;;;;11.50;8.25;;;;;23.75;42.44;102042.22;2380935;28;45746;-84
2022/08/10 07:08:32;;;;;;;;;9.00;7.00;;;;;23.76;42.70;102049.28;2384033;28;45366;-82
2022/08/10 07:09:44;;;;;;;;;8.50;7.50;;;;;23.77;42.35;102045.63;2374207;28;45485;-85
2022/08/10 07:10:55;;;;;;;;;11.00;8.25;;;;;23.79;42.54;102044.56;2375608;28;45303;-86
2022/08/10 07:12:07;;;;;;;;;11.00;8.25;;;;;23.82;42.75;102047.06;2366478;28;45248;-85
2022/08/10 07:13:19;;;;;;;;;7.50;7.50;;;;;23.83;42.48;102043.38;2367357;28;46668;-86
2022/08/10 07:14:31;;;;;;;;;10.50;9.00;;;;;23.87;42.55;102048.53;2367408;28;44857;-86
2022/08/10 07:15:43;;;;;;;;;11.50;10.25;;;;;23.89;42.47;102043.94;2371425;28;46646;-87
2022/08/10 07:16:55;;;;;;;;;7.50;7.50;;;;;23.93;42.53;102042.72;2377484;28;45232;-86
2022/08/10 07:18:06;;;;;;;;;8.00;8.00;;;;;23.96;42.99;102047.91;2373898;28;47191;-87
2022/08/10 07:19:19;;;;;;;;;7.50;7.50;;;;;24.00;42.40;102045.88;2368018;28;45275;-85
2022/08/10 07:20:32;;;;;;;;;15.00;10.25;;;;;24.00;41.99;102038.66;2376644;28;47385;-85
2022/08/10 07:21:45;;;;;;;;;8.25;8.25;;;;;24.02;42.12;102042.13;2374378;28;44859;-85
2022/08/10 07:22:56;;;;;;;;;12.25;9.25;;;;;24.05;42.30;102039.19;2362403;28;46040;-86
2022/08/10 07:24:12;;;;;;;;;9.50;8.00;;;;;24.07;42.08;102035.56;2376454;28;45404;-85
2022/08/10 07:25:26;;;;;;;;;10.50;9.00;;;;;24.08;41.91;102034.56;2373276;28;47251;-86
2022/08/10 07:26:41;;;;;;;;;4.00;4.00;;;;;24.11;41.65;102035.22;2368190;28;45241;-85
2022/08/10 07:27:55;;;;;;;;;9.25;8.25;;;;;24.15;41.62;102039.41;2377565;28;45407;-85
2022/08/10 07:29:06;;;;;;;;;12.00;9.00;;;;;24.16;41.71;102038.44;2384276;28;45252;-85
2022/08/10 07:30:17;;;;;;;;;12.25;8.50;;;;;24.18;42.03;102035.63;2384092;28;45466;-86
2022/08/10 07:31:29;;;;;;;;;9.50;8.25;;;;;24.20;41.88;102041.75;2373861;28;45338;-86
2022/08/10 07:32:44;;;;;;;;;9.50;8.75;;;;;24.20;41.83;102033.69;2367341;28;47112;-85
2022/08/10 07:33:58;;;;;;;;;10.00;9.75;;;;;24.25;41.74;102036.94;2371090;28;45235;-85
2022/08/10 07:35:12;;;;;;;;;10.25;8.75;;;;;24.31;42.04;102040.16;2367758;28;46493;-84
2022/08/10 07:36:25;;;;;;;;;13.50;9.00;;;;;24.33;41.44;102035.53;2376754;28;46618;-84
2022/08/10 07:37:37;;;;;;;;;7.00;6.50;;;;;24.35;40.99;102039.84;2383001;28;45532;-85
2022/08/10 07:38:50;;;;;;;;;8.75;6.75;;;;;24.39;41.46;102040.50;2372013;28;44850;-85
2022/08/10 07:40:02;;;;;;;;;10.50;8.25;;;;;24.41;41.29;102043.91;2376583;28;46234;-84
2022/08/10 07:41:15;;;;;;;;;6.25;6.25;;;;;24.44;41.17;102034.78;2384266;28;45201;-84
2022/08/10 07:42:28;;;;;;;;;7.75;6.75;;;;;24.44;41.09;102034.78;2383765;28;45560;-84
2022/08/10 07:43:40;;;;;;;;;9.50;8.25;;;;;24.46;41.25;102036.38;2384203;28;44700;-83
2022/08/10 07:44:51;;;;;;;;;8.75;8.75;;;;;24.48;41.17;102031.75;2383931;28;45261;-84
2022/08/10 07:46:10;;;;;;;;;11.50;11.25;;;;;24.53;41.42;102038.63;2384213;28;45235;-83
2022/08/10 07:47:43;;;;;;;;;10.50;9.75;;;;;24.57;41.19;102042.81;2375722;28;45203;-83
2022/08/10 07:49:01;;;;;;;;;9.25;9.00;;;;;24.62;40.89;102037.94;2374798;28;45180;-83
2022/08/10 07:50:16;;;;;;;;;11.25;9.00;;;;;24.65;40.84;102037.72;2375632;28;45564;-82
2022/08/10 07:51:27;;;;;;;;;10.00;10.00;;;;;24.68;41.36;102037.50;2384202;28;45291;-82
2022/08/10 07:52:39;;;;;;;;;11.75;8.75;;;;;24.72;40.85;102038.97;2382117;28;46791;-82
2022/08/10 07:53:52;;;;;;;;;9.00;8.25;;;;;24.75;40.59;102043.28;2383203;28;45357;-82
2022/08/10 07:55:05;;;;;;;;;16.50;7.75;;;;;24.78;40.78;102040.38;2383611;28;46357;-82
2022/08/10 07:56:17;;;;;;;;;9.75;8.25;;;;;24.82;40.38;102046.38;2383305;28;45325;-81
2022/08/10 07:57:31;;;;;;;;;10.00;9.00;;;;;24.86;40.60;102049.69;2383859;28;46433;-81
2022/08/10 07:58:49;;;;;;;;;10.75;9.50;;;;;24.89;40.49;102050.31;2383895;28;44684;-82
2022/08/10 08:00:05;;;;;;;;;8.50;7.75;;;;;24.94;40.31;102053.53;2380596;28;45398;-82
2022/08/10 08:01:16;;;;;;;;;10.00;9.00;;;;;24.95;39.99;102047.19;2382482;28;45401;-81
2022/08/10 08:02:33;;;;;;;;;10.25;9.25;;;;;24.96;40.06;102045.38;2382854;28;46772;-82
2022/08/10 08:03:46;;;;;;;;;6.25;5.50;;;;;25.02;40.04;102052.13;2392111;28;45338;-82
2022/08/10 08:05:01;;;;;;;;;9.50;8.25;;;;;25.06;39.87;102046.41;2393425;28;45521;-82
2022/08/10 08:06:12;;;;;;;;;9.00;9.00;;;;;25.10;40.09;102040.81;2388054;28;45279;-82
2022/08/10 08:07:23;;;;;;;;;10.00;9.50;;;;;25.16;39.95;102062.72;2389854;28;45436;-82
2022/08/10 08:08:35;;;;;;;;;10.00;9.50;;;;;25.19;40.18;102050.88;2392928;28;45299;-82
2022/08/10 08:09:48;;;;;;;;;5.75;4.50;;;;;25.25;39.67;102052.25;2393446;28;45365;-82
2022/08/10 08:10:59;;;;;;;;;8.00;8.00;;;;;25.25;39.57;102050.41;2391390;28;45718;-82
2022/08/10 08:12:11;;;;;;;;;9.25;9.25;;;;;25.27;39.52;102050.28;2394211;28;46360;-82
2022/08/10 08:13:23;;;;;;;;;10.75;8.25;;;;;25.28;39.66;102052.88;2390689;28;45168;-82
2022/08/10 08:14:36;;;;;;;;;12.25;9.50;;;;;25.30;39.44;102050.06;2389982;28;46512;-82
2022/08/10 08:15:47;;;;;;;;;11.25;10.25;;;;;25.35;39.41;102049.72;2386888;28;44764;-82
2022/08/10 08:16:58;;;;;;;;;8.50;8.50;;;;;25.37;39.60;102045.94;2393039;28;46770;-82
2022/08/10 08:18:10;;;;;;;;;10.00;9.75;;;;;25.40;39.47;102045.69;2394132;28;44808;-82
2022/08/10 08:19:22;;;;;;;;;10.75;10.00;;;;;25.46;39.33;102040.81;2387897;28;46520;-82
2022/08/10 08:20:33;;;;;;;;;12.00;10.50;;;;;25.48;39.10;102033.50;2394859;28;45216;-82
2022/08/10 08:21:45;;;;;;;;;10.75;7.25;;;;;25.53;39.25;102034.00;2394041;28;45338;-82
2022/08/10 08:22:57;;;;;;;;;11.00;9.25;;;;;25.55;39.31;102040.13;2384387;28;45405;-82
2022/08/10 08:24:09;;;;;;;;;12.00;11.00;;;;;25.57;39.39;102038.16;2373687;28;47136;-81
2022/08/10 08:25:21;;;;;;;;;10.00;9.50;;;;;25.61;38.68;102036.06;2381243;28;45882;-83
2022/08/10 08:26:32;;;;;;;;;8.75;8.75;;;;;25.62;38.88;102035.97;2390296;28;46283;-82
2022/08/10 08:27:44;;;;;;;;;10.25;10.25;;;;;25.67;38.97;102037.44;2392400;28;45491;-82
2022/08/10 08:28:56;;;;;;;;;9.50;8.25;;;;;25.70;38.32;102026.44;2393336;28;45525;-83
2022/08/10 08:30:07;;;;;;;;;9.50;9.00;;;;;25.72;39.31;102028.06;2394543;28;45323;-83
2022/08/10 08:31:20;;;;;;;;;10.75;8.75;;;;;25.76;38.52;102023.28;2394734;28;45388;-83
2022/08/10 08:32:34;;;;;;;;;11.00;10.50;;;;;25.78;38.50;102025.88;2393353;28;44746;-83
2022/08/10 08:33:46;;;;;;;;;11.00;9.00;;;;;25.83;39.10;102029.91;2383278;28;47349;-83
2022/08/10 08:35:01;;;;;;;;;8.25;8.25;;;;;25.86;38.60;102026.13;2386725;28;45369;-83
2022/08/10 08:36:15;;;;;;;;;9.50;9.50;;;;;25.93;38.42;102023.78;2384554;28;48011;-83
2022/08/10 08:37:29;;;;;;;;;11.75;8.50;;;;;25.95;38.44;102027.25;2392269;28;45077;-83
2022/08/10 08:38:41;;;;;;;;;10.75;9.00;;;;;25.96;38.06;102021.72;2394091;28;46127;-82
2022/08/10 08:39:51;;;;;;;;;5.50;5.00;;;;;25.99;38.47;102023.31;2393344;28;45603;-83
2022/08/10 08:41:33;;;;;;;;;11.00;9.00;;;;;26.02;38.80;102028.47;2393744;28;45283;-83
2022/08/10 08:43:04;;;;;;;;;9.00;9.00;;;;;26.06;38.45;102013.75;2394541;28;45170;-84
2022/08/10 08:44:26;;;;;;;;;11.75;10.00;;;;;26.11;38.07;102020.59;2374163;28;45431;-82
2022/08/10 08:46:13;;;;;;;;;10.00;10.00;;;;;26.17;38.37;102022.84;2393588;28;44769;-82
2022/08/10 08:47:38;;;;;;;;;13.25;9.00;;;;;26.20;37.57;102019.03;2393760;28;45265;-83
2022/08/10 08:49:16;;;;;;;;;8.75;8.75;;;;;26.25;37.52;102019.53;2393536;28;45306;-83
2022/08/10 08:51:06;;;;;;;;;9.50;8.25;;;;;26.27;37.43;102017.56;2375248;28;48347;-84
2022/08/10 08:52:58;;;;;;;;;9.50;8.50;;;;;26.29;36.78;102021.84;2382786;28;45419;-83
2022/08/10 08:54:18;;;;;;;;;9.50;7.25;;;;;26.29;37.65;102016.44;2365867;28;45613;-83
2022/08/10 08:55:43;;;;;;;;;10.00;10.00;;;;;26.33;37.02;102010.78;2372484;28;45307;-83
2022/08/10 08:57:03;;;;;;;;;12.00;9.00;;;;;26.36;37.49;102016.81;2387779;28;45323;-84
2022/08/10 08:58:28;;;;;;;;;9.25;9.25;;;;;26.38;37.21;102014.84;2389643;28;45159;-85
2022/08/10 08:59:59;;;;;;;;;9.25;8.75;;;;;26.44;37.77;102016.22;2384530;28;47108;-90
2022/08/10 09:01:15;;;;;;;;;12.25;11.00;;;;;26.48;37.49;102006.88;2387714;28;45496;-88
2022/08/10 09:02:29;;;;;;;;;12.25;11.25;;;;;26.54;37.75;102020.84;2393921;28;46592;-86
2022/08/10 09:03:59;;;;;;;;;9.75;9.75;;;;;26.58;37.32;102011.53;2393744;28;45456;-87
2022/08/10 09:05:15;;;;;;;;;12.75;9.00;;;;;26.63;36.70;102009.31;2356094;29;45434;-86
2022/08/10 09:06:29;;;;;;;;;10.00;9.25;;;;;26.66;37.28;102017.16;2394759;28;45298;-86
2022/08/10 09:08:05;;;;;;;;;10.75;10.00;;;;;26.71;36.59;102016.78;2384004;28;47364;-86
2022/08/10 09:09:36;;;;;;;;;9.25;8.75;;;;;26.77;37.05;102007.31;2378400;28;45463;-86
2022/08/10 09:11:07;;;;;;;;;7.50;7.50;;;;;26.80;36.97;102002.50;2386983;28;45599;-85
2022/08/10 09:12:39;;;;;;;;;11.25;11.00;;;;;26.85;36.29;102004.81;2393141;28;45397;-86
2022/08/10 09:14:20;;;;;;;;;4.50;3.50;;;;;26.89;36.30;102008.13;2393843;28;48149;-86
2022/08/10 09:15:50;;;;;;;;;10.00;9.25;;;;;26.91;36.30;101995.38;2394345;28;44675;-86
2022/08/10 09:17:22;;;;;;;;;10.75;8.25;;;;;26.95;35.92;101994.97;2384181;28;47712;-86
2022/08/10 09:18:48;;;;;;;;;9.25;9.25;;;;;27.00;36.39;101991.03;2390292;28;45183;-86
2022/08/10 09:20:08;;;;;;;;;9.00;8.25;;;;;27.04;36.33;102000.59;2383121;28;48368;-86
2022/08/10 09:21:53;;;;;;;;;9.00;8.25;;;;;27.09;35.95;101998.34;2378507;28;45354;-86
2022/08/10 09:23:41;;;;;;;;;10.00;9.00;;;;;27.13;36.53;101999.84;2386591;28;48306;-86
2022/08/10 09:25:03;;;;;;;;;9.00;7.00;;;;;27.16;36.54;101998.72;2384470;28;45280;-86
2022/08/10 09:26:20;;;;;;;;;10.00;10.00;;;;;27.17;36.20;101990.50;2388779;28;46349;-86
2022/08/10 09:27:42;;;;;;;;;9.00;8.75;;;;;27.19;36.15;101993.06;2393683;28;45326;-86
2022/08/10 09:28:59;;;;;;;;;10.75;10.00;;;;;27.20;35.87;101992.06;2394107;28;46245;-86
2022/08/10 09:30:12;;;;;;;;;11.25;10.50;;;;;27.23;35.60;101989.13;2393712;28;45413;-86
2022/08/10 09:31:26;;;;;;;;;11.50;11.00;;;;;27.28;35.68;101986.03;2384404;28;47477;-86
2022/08/10 09:32:45;;;;;;;;;10.50;9.75;;;;;27.28;35.64;101986.88;2377759;28;45379;-86
2022/08/10 09:34:22;;;;;;;;;10.75;10.00;;;;;27.31;35.60;101988.47;2384172;28;47373;-86
2022/08/10 09:35:56;;;;;;;;;12.75;10.75;;;;;27.36;35.83;101985.38;2381141;28;45218;-86
2022/08/10 09:37:22;;;;;;;;;10.00;9.75;;;;;27.38;36.06;101980.69;2389808;28;45595;-86
2022/08/10 09:39:22;;;;;;;;;10.50;9.25;;;;;27.43;35.88;101978.47;2392810;28;45265;-86
2022/08/10 09:40:45;;;;;;;;;11.25;10.00;;;;;27.47;35.91;101987.13;2354243;28;48297;-86
2022/08/10 09:42:13;;;;;;;;;9.75;9.75;;;;;27.50;35.63;101981.47;2379283;28;44811;-86
2022/08/10 09:43:42;;;;;;;;;11.00;9.75;;;;;27.54;35.18;101980.22;2389474;28;45745;-86
2022/08/10 09:45:08;;;;;;;;;12.00;12.00;;;;;27.57;35.12;101982.66;2384280;28;45392;-86
2022/08/10 09:46:23;;;;;;;;;13.50;11.00;;;;;27.60;35.19;101977.00;2379400;28;47249;-87
2022/08/10 09:47:49;;;;;;;;;9.00;9.00;;;;;27.63;35.47;101987.50;2386164;28;45494;-86
2022/08/10 09:49:10;;;;;;;;;10.00;9.00;;;;;27.68;35.34;101980.88;2394098;28;46530;-86
2022/08/10 09:50:34;;;;;;;;;10.25;10.25;;;;;27.70;35.48;101977.03;2394486;28;46495;-86
2022/08/10 09:52:08;;;;;;;;;11.00;9.50;;;;;27.74;34.94;101981.16;2383986;28;47171;-86
2022/08/10 09:53:24;;;;;;;;;7.25;5.50;;;;;27.80;35.19;101981.66;2390099;28;44785;-86
2022/08/10 09:55:26;;;;;;;;;10.75;10.00;;;;;27.85;34.74;101974.00;2384984;28;45455;-86
2022/08/10 09:57:13;;;;;;;;;10.50;9.75;;;;;27.89;34.98;101982.69;2375285;28;45462;-86
2022/08/10 09:58:53;;;;;;;;;11.25;10.75;;;;;27.91;34.97;101978.84;2383904;28;47858;-86
2022/08/10 10:00:20;;;;;;;;;11.00;9.25;;;;;27.94;35.19;101977.72;2372029;28;45258;-86
2022/08/10 10:01:39;;;;;;;;;11.25;11.25;;;;;27.94;34.83;101973.19;2379406;28;47434;-86
2022/08/10 10:03:18;;;;;;;;;11.00;10.25;;;;;27.98;34.95;101971.91;2378618;28;44664;-86
2022/08/10 10:04:47;;;;;;;;;12.25;11.50;;;;;28.04;34.57;101975.06;2393780;28;45701;-86
2022/08/10 10:06:22;;;;;;;;;11.00;10.50;;;;;28.05;34.40;101969.50;2384063;28;45433;-86
2022/08/10 10:07:37;;;;;;;;;9.00;9.00;;;;;28.07;34.70;101974.78;2389976;28;45230;-86
2022/08/10 10:09:14;;;;;;;;;10.25;9.25;;;;;28.08;35.07;101960.28;2394154;28;44828;-86
2022/08/10 10:11:06;;;;;;;;;13.75;10.00;;;;;28.12;34.38;101963.56;2392870;28;46946;-86
2022/08/10 10:12:32;;;;;;;;;12.25;10.00;;;;;28.11;34.08;101961.84;2391955;28;45357;-86
2022/08/10 10:14:33;;;;;;;;;5.00;5.00;;;;;28.13;33.79;101955.31;2393821;28;46434;-86
2022/08/10 10:16:07;;;;;;;;;12.00;10.00;;;;;28.14;34.07;101950.78;2377249;28;44827;-87
2022/08/10 10:17:27;;;;;;;;;11.75;11.50;;;;;28.18;33.79;101957.59;2383404;28;47419;-86
2022/08/10 10:19:00;;;;;;;;;9.50;9.25;;;;;28.22;34.13;101960.88;2378271;28;45368;-86
2022/08/10 10:20:22;;;;;;;;;11.50;11.50;;;;;28.26;33.84;101952.38;2390089;28;46592;-86
2022/08/10 10:21:44;;;;;;;;;11.50;11.50;;;;;28.31;33.16;101949.25;2394199;28;44653;-86
2022/08/10 10:23:13;;;;;;;;;9.00;9.00;;;;;28.36;33.43;101949.69;2393154;28;48635;-86
2022/08/10 10:24:39;;;;;;;;;9.50;9.25;;;;;28.42;33.66;101950.97;2393304;28;44629;-86
2022/08/10 10:26:00;;;;;;;;;6.75;6.75;;;;;28.45;33.63;101953.41;2393935;28;45396;-86
2022/08/10 10:27:39;;;;;;;;;10.25;10.25;;;;;28.48;33.73;101946.88;2393198;28;45464;-86
2022/08/10 10:29:09;;;;;;;;;10.25;10.25;;;;;28.52;33.85;101943.75;2393914;28;46168;-86
2022/08/10 10:30:24;;;;;;;;;7.25;7.25;;;;;28.51;33.91;101939.34;2394122;28;45485;-86
2022/08/10 10:31:40;;;;;;;;;10.00;9.75;;;;;28.53;33.55;101939.19;2393930;28;46438;-86
2022/08/10 10:33:02;;;;;;;;;12.50;12.00;;;;;28.52;33.23;101943.75;2392622;28;45299;-86
2022/08/10 10:34:21;;;;;;;;;10.00;10.00;;;;;28.52;33.24;101937.50;2387893;28;46572;-86
2022/08/10 10:35:38;;;;;;;;;11.00;9.25;;;;;28.52;33.58;101942.91;2377971;28;45248;-86
2022/08/10 10:36:51;;;;;;;;;8.75;8.75;;;;;28.52;33.29;101935.63;2387583;28;45501;-86
2022/08/10 10:38:05;;;;;;;;;9.25;9.25;;;;;28.54;32.82;101940.91;2393515;28;45231;-86
2022/08/10 10:39:18;;;;;;;;;12.50;11.00;;;;;28.57;33.15;101939.78;2392607;28;46966;-86
2022/08/10 10:40:38;;;;;;;;;11.00;11.00;;;;;28.55;32.84;101934.50;2383837;28;45461;-86
2022/08/10 10:42:05;;;;;;;;;10.00;10.00;;;;;28.57;33.26;101934.38;2378242;28;47149;-87
2022/08/10 10:43:41;;;;;;;;;9.00;9.00;;;;;28.60;33.14;101939.47;2393246;28;45343;-86
2022/08/10 10:45:00;;;;;;;;;11.00;8.25;;;;;28.59;33.33;101925.13;2383704;28;47603;-86
2022/08/10 10:46:23;;;;;;;;;9.00;9.00;;;;;28.57;32.77;101923.56;2378355;28;45425;-86
2022/08/10 10:47:48;;;;;;;;;11.25;10.25;;;;;28.59;32.59;101922.41;2372315;28;48056;-86
2022/08/10 10:49:13;;;;;;;;;7.50;7.50;;;;;28.59;32.56;101917.00;2383871;28;45253;-87
2022/08/10 10:50:26;;;;;;;;;8.75;8.00;;;;;28.61;33.18;101919.56;2383609;28;47212;-86
2022/08/10 10:51:46;;;;;;;;;7.00;7.00;;;;;28.61;33.29;101919.56;2379324;28;44804;-86
2022/08/10 10:53:12;;;;;;;;;11.00;9.50;;;;;28.61;32.75;101920.41;2393440;28;46245;-86
2022/08/10 10:54:55;;;;;;;;;9.50;8.00;;;;;28.63;32.36;101928.38;2382758;28;45240;-85
2022/08/10 10:56:25;;;;;;;;;8.50;8.50;;;;;28.62;32.59;101910.47;2384965;28;45625;-86
2022/08/10 10:57:58;;;;;;;;;10.25;10.00;;;;;28.65;33.03;101915.56;2393698;28;45467;-86
2022/08/10 10:59:22;;;;;;;;;10.00;8.50;;;;;28.65;32.64;101915.56;2388607;28;45541;-86
2022/08/10 11:00:45;;;;;;;;;9.00;9.00;;;;;28.66;33.08;101906.47;2384666;28;45421;-86
2022/08/10 11:02:31;;;;;;;;;7.25;7.00;;;;;28.65;32.67;101912.84;2392805;28;47457;-86
2022/08/10 11:04:12;;;;;;;;;9.50;9.50;;;;;28.63;33.34;101913.00;2393544;28;45511;-86
2022/08/10 11:05:41;;;;;;;;;8.25;8.25;;;;;28.62;33.08;101913.16;2383630;28;48389;-86